createdAt,value
2018-01-21T00:00:22.283Z,23.77
2018-01-21T00:00:54.389Z,23.82
2018-01-21T00:01:26.889Z,23.81
2018-01-21T00:01:58.871Z,23.81
2018-01-21T00:02:30.889Z,23.79
2018-01-21T00:03:02.887Z,23.77
2018-01-21T00:03:34.861Z,23.85
2018-01-21T00:04:06.879Z,23.85
2018-01-21T00:04:38.893Z,23.85
2018-01-21T00:05:11.634Z,23.89
2018-01-21T00:05:43.586Z,23.84
2018-01-21T00:06:15.658Z,23.82
2018-01-21T00:06:47.689Z,23.79
2018-01-21T00:07:19.816Z,23.85
2018-01-21T00:07:51.798Z,23.74
2018-01-21T00:08:23.789Z,23.79
2018-01-21T00:08:55.824Z,23.85
2018-01-21T00:09:28.007Z,23.81
2018-01-21T00:10:00.518Z,23.75
2018-01-21T00:10:32.512Z,23.84
2018-01-21T00:11:05.454Z,23.77
2018-01-21T00:11:37.479Z,23.85
2018-01-21T00:12:09.474Z,23.82
2018-01-21T00:12:41.495Z,23.89
2018-01-21T00:13:13.481Z,23.89
2018-01-21T00:13:45.450Z,23.77
2018-01-21T00:14:17.602Z,23.79
2018-01-21T00:14:49.602Z,23.81
2018-01-21T00:15:21.599Z,23.75
2018-01-21T00:15:53.625Z,23.93
2018-01-21T00:16:25.617Z,23.77
2018-01-21T00:16:57.636Z,23.77
2018-01-21T00:17:29.755Z,23.85
2018-01-21T00:18:01.755Z,23.77
2018-01-21T00:18:33.739Z,23.89
2018-01-21T00:19:05.703Z,23.87
2018-01-21T00:19:38.499Z,23.82
2018-01-21T00:20:10.460Z,23.74
2018-01-21T00:20:42.430Z,23.89
2018-01-21T00:21:14.410Z,23.89
2018-01-21T00:21:46.415Z,23.79
2018-01-21T00:22:18.456Z,23.84
2018-01-21T00:22:50.467Z,23.75
2018-01-21T00:23:22.497Z,23.92
2018-01-21T00:23:54.545Z,23.87
2018-01-21T00:24:26.554Z,23.89
2018-01-21T00:24:58.572Z,23.78
2018-01-21T00:25:30.590Z,23.94
2018-01-21T00:26:02.599Z,23.96
2018-01-21T00:26:34.573Z,23.75
2018-01-21T00:27:06.535Z,23.81
2018-01-21T00:27:39.340Z,23.82
2018-01-21T00:28:12.340Z,23.77
2018-01-21T00:28:44.333Z,23.89
2018-01-21T00:29:16.361Z,23.87
2018-01-21T00:29:49.438Z,23.93
2018-01-21T00:30:21.432Z,23.84
2018-01-21T00:30:53.442Z,23.89
2018-01-21T00:31:25.392Z,23.84
2018-01-21T00:31:57.444Z,23.89
2018-01-21T00:32:29.573Z,23.9
2018-01-21T00:33:01.685Z,23.82
2018-01-21T00:33:33.658Z,23.9
2018-01-21T00:34:05.645Z,23.79
2018-01-21T00:34:37.675Z,23.89
2018-01-21T00:35:09.677Z,23.79
2018-01-21T00:35:41.690Z,23.93
2018-01-21T00:36:13.695Z,23.89
2018-01-21T00:36:45.698Z,23.96
2018-01-21T00:37:17.700Z,23.9
2018-01-21T00:37:49.892Z,23.9
2018-01-21T00:38:21.823Z,23.9
2018-01-21T00:38:53.885Z,23.92
2018-01-21T00:39:25.908Z,23.9
2018-01-21T00:39:58.064Z,23.93
2018-01-21T00:40:30.083Z,23.87
2018-01-21T00:41:02.855Z,23.93
2018-01-21T00:41:34.846Z,23.93
2018-01-21T00:42:06.880Z,23.93
2018-01-21T00:42:38.855Z,23.89
2018-01-21T00:43:10.833Z,23.89
2018-01-21T00:43:42.862Z,23.94
2018-01-21T00:44:14.851Z,23.96
2018-01-21T00:44:46.875Z,23.94
2018-01-21T00:45:18.911Z,23.87
2018-01-21T00:45:50.909Z,23.89
2018-01-21T00:46:22.900Z,23.93
2018-01-21T00:46:55.423Z,23.9
2018-01-21T00:47:27.462Z,23.97
2018-01-21T00:48:00.251Z,23.99
2018-01-21T00:48:32.261Z,23.97
2018-01-21T00:49:04.276Z,23.92
2018-01-21T00:49:36.325Z,23.9
2018-01-21T00:50:08.298Z,23.96
2018-01-21T00:50:40.343Z,23.92
2018-01-21T00:51:12.315Z,23.93
2018-01-21T00:51:44.341Z,23.93
2018-01-21T00:52:16.320Z,23.92
2018-01-21T00:52:48.329Z,23.97
2018-01-21T00:53:20.292Z,23.99
2018-01-21T00:53:52.311Z,23.96
2018-01-21T00:54:24.344Z,23.99
2018-01-21T00:54:56.339Z,23.96
2018-01-21T00:55:28.381Z,23.99
2018-01-21T00:56:00.408Z,23.93
2018-01-21T00:56:32.430Z,23.93
2018-01-21T00:57:04.438Z,23.93
2018-01-21T00:57:36.435Z,24
2018-01-21T00:58:08.451Z,23.9
2018-01-21T00:58:40.488Z,23.99
2018-01-21T00:59:12.461Z,23.96
2018-01-21T00:59:44.571Z,23.89
2018-01-21T01:00:17.255Z,23.9
2018-01-21T01:00:49.209Z,23.97
2018-01-21T01:01:21.148Z,23.99
2018-01-21T01:01:53.138Z,23.96
2018-01-21T01:02:25.166Z,23.93
2018-01-21T01:02:58.056Z,23.94
2018-01-21T01:03:30.048Z,23.99
2018-01-21T01:04:02.018Z,24.02
2018-01-21T01:04:33.995Z,23.97
2018-01-21T01:05:05.965Z,23.93
2018-01-21T01:05:38.043Z,24
2018-01-21T01:06:10.013Z,24.03
2018-01-21T01:06:42.072Z,23.93
2018-01-21T01:07:14.072Z,24
2018-01-21T01:07:46.020Z,23.9
2018-01-21T01:08:17.961Z,24
2018-01-21T01:08:49.908Z,23.93
2018-01-21T01:09:22.779Z,23.92
2018-01-21T01:09:54.764Z,24
2018-01-21T01:10:26.761Z,23.93
2018-01-21T01:10:58.798Z,23.94
2018-01-21T01:11:30.868Z,23.97
2018-01-21T01:12:02.900Z,24
2018-01-21T01:12:34.881Z,23.9
2018-01-21T01:13:07.450Z,23.9
2018-01-21T01:13:39.422Z,23.89
2018-01-21T01:14:11.437Z,23.93
2018-01-21T01:14:43.450Z,24.02
2018-01-21T01:15:15.451Z,23.9
2018-01-21T01:15:47.468Z,23.93
2018-01-21T01:16:19.533Z,23.93
2018-01-21T01:16:51.555Z,23.99
2018-01-21T01:17:23.546Z,23.97
2018-01-21T01:17:55.615Z,23.99
2018-01-21T01:18:27.674Z,23.94
2018-01-21T01:18:59.704Z,23.96
2018-01-21T01:19:31.718Z,23.92
2018-01-21T01:20:03.730Z,23.99
2018-01-21T01:20:35.736Z,24
2018-01-21T01:21:07.707Z,23.93
2018-01-21T01:21:39.775Z,23.9
2018-01-21T01:22:11.829Z,23.93
2018-01-21T01:22:43.824Z,23.93
2018-01-21T01:23:15.857Z,23.9
2018-01-21T01:23:47.879Z,23.93
2018-01-21T01:24:19.889Z,23.93
2018-01-21T01:24:52.005Z,23.93
2018-01-21T01:25:24.017Z,23.92
2018-01-21T01:25:56.040Z,23.93
2018-01-21T01:26:28.023Z,23.94
2018-01-21T01:27:00.062Z,23.97
2018-01-21T01:27:32.045Z,23.97
2018-01-21T01:28:04.056Z,23.93
2018-01-21T01:28:36.102Z,23.99
2018-01-21T01:29:08.121Z,23.93
2018-01-21T01:29:40.136Z,23.96
2018-01-21T01:30:12.083Z,23.93
2018-01-21T01:30:44.122Z,23.96
2018-01-21T01:31:16.084Z,23.96
2018-01-21T01:31:48.079Z,23.94
2018-01-21T01:32:20.098Z,24
2018-01-21T01:32:52.127Z,23.93
2018-01-21T01:33:24.149Z,23.87
2018-01-21T01:33:56.165Z,23.99
2018-01-21T01:34:28.193Z,23.97
2018-01-21T01:35:00.208Z,23.9
2018-01-21T01:35:32.160Z,23.99
2018-01-21T01:36:04.202Z,23.94
2018-01-21T01:36:36.882Z,23.96
2018-01-21T01:37:08.882Z,23.94
2018-01-21T01:37:40.953Z,23.9
2018-01-21T01:38:12.925Z,23.92
2018-01-21T01:38:44.895Z,23.92
2018-01-21T01:39:16.870Z,23.89
2018-01-21T01:39:48.863Z,23.93
2018-01-21T01:40:20.908Z,23.9
2018-01-21T01:40:52.879Z,23.89
2018-01-21T01:41:24.907Z,23.92
2018-01-21T01:41:56.901Z,23.92
2018-01-21T01:42:28.933Z,23.87
2018-01-21T01:43:01.026Z,23.92
2018-01-21T01:43:33.813Z,23.93
2018-01-21T01:44:05.815Z,23.92
2018-01-21T01:44:37.920Z,23.94
2018-01-21T01:45:09.931Z,23.89
2018-01-21T01:45:42.786Z,23.87
2018-01-21T01:46:14.880Z,23.93
2018-01-21T01:46:46.888Z,23.96
2018-01-21T01:47:19.521Z,23.94
2018-01-21T01:47:51.479Z,23.9
2018-01-21T01:48:23.527Z,23.92
2018-01-21T01:48:55.530Z,23.94
2018-01-21T01:49:27.570Z,23.93
2018-01-21T01:49:59.570Z,23.9
2018-01-21T01:50:31.617Z,23.97
2018-01-21T01:51:03.615Z,23.92
2018-01-21T01:51:35.552Z,23.87
2018-01-21T01:52:07.565Z,23.87
2018-01-21T01:52:39.545Z,23.89
2018-01-21T01:53:11.526Z,23.94
2018-01-21T01:53:43.545Z,23.92
2018-01-21T01:54:15.550Z,23.92
2018-01-21T01:54:47.516Z,23.9
2018-01-21T01:55:19.498Z,23.92
2018-01-21T01:55:51.482Z,23.96
2018-01-21T01:56:24.301Z,23.92
2018-01-21T01:56:56.343Z,23.99
2018-01-21T01:57:28.350Z,23.97
2018-01-21T01:58:00.493Z,23.96
2018-01-21T01:58:32.446Z,23.93
2018-01-21T01:59:05.288Z,24.03
2018-01-21T01:59:37.245Z,24.03
2018-01-21T02:00:10.013Z,23.89
2018-01-21T02:00:41.988Z,23.89
2018-01-21T02:01:13.994Z,24.03
2018-01-21T02:01:45.973Z,23.87
2018-01-21T02:02:17.970Z,24
2018-01-21T02:02:49.963Z,23.97
2018-01-21T02:03:21.963Z,23.96
2018-01-21T02:03:54.120Z,23.96
2018-01-21T02:04:26.109Z,23.96
2018-01-21T02:04:58.144Z,23.9
2018-01-21T02:05:30.150Z,23.89
2018-01-21T02:06:03.924Z,23.99
2018-01-21T02:06:36.490Z,24.04
2018-01-21T02:07:08.507Z,23.99
2018-01-21T02:07:40.514Z,23.99
2018-01-21T02:08:12.535Z,24.02
2018-01-21T02:08:44.566Z,23.96
2018-01-21T02:09:16.594Z,23.99
2018-01-21T02:09:49.326Z,23.97
2018-01-21T02:10:21.327Z,23.9
2018-01-21T02:10:53.326Z,23.96
2018-01-21T02:11:25.338Z,23.94
2018-01-21T02:11:58.210Z,23.92
2018-01-21T02:12:30.200Z,23.92
2018-01-21T02:13:02.225Z,24.02
2018-01-21T02:13:34.230Z,23.94
2018-01-21T02:14:06.243Z,23.96
2018-01-21T02:14:38.244Z,24
2018-01-21T02:15:10.226Z,23.93
2018-01-21T02:15:42.271Z,23.99
2018-01-21T02:16:15.127Z,23.96
2018-01-21T02:16:47.137Z,23.92
2018-01-21T02:17:19.125Z,23.99
2018-01-21T02:17:51.120Z,23.97
2018-01-21T02:18:23.185Z,23.92
2018-01-21T02:18:55.214Z,23.96
2018-01-21T02:19:28.102Z,23.93
2018-01-21T02:20:00.072Z,23.92
2018-01-21T02:20:32.059Z,23.97
2018-01-21T02:21:04.076Z,23.94
2018-01-21T02:21:36.106Z,23.93
2018-01-21T02:22:08.127Z,23.93
2018-01-21T02:22:40.152Z,23.89
2018-01-21T02:23:12.118Z,23.96
2018-01-21T02:23:44.151Z,23.97
2018-01-21T02:24:16.130Z,23.89
2018-01-21T02:24:48.057Z,23.9
2018-01-21T02:25:20.083Z,23.99
2018-01-21T02:25:52.169Z,23.87
2018-01-21T02:26:24.110Z,23.97
2018-01-21T02:26:56.109Z,23.93
2018-01-21T02:27:28.062Z,23.96
2018-01-21T02:28:00.631Z,24.02
2018-01-21T02:28:32.652Z,23.94
2018-01-21T02:29:04.658Z,23.9
2018-01-21T02:29:36.730Z,23.9
2018-01-21T02:30:08.774Z,23.93
2018-01-21T02:30:41.711Z,23.9
2018-01-21T02:31:13.740Z,23.9
2018-01-21T02:31:45.821Z,23.93
2018-01-21T02:32:17.907Z,23.89
2018-01-21T02:32:49.899Z,23.93
2018-01-21T02:33:21.904Z,23.93
2018-01-21T02:33:53.931Z,23.89
2018-01-21T02:34:25.960Z,23.89
2018-01-21T02:34:57.942Z,23.93
2018-01-21T02:35:29.916Z,23.92
2018-01-21T02:36:01.910Z,23.89
2018-01-21T02:36:33.906Z,23.93
2018-01-21T02:37:05.883Z,23.96
2018-01-21T02:37:37.917Z,23.92
2018-01-21T02:38:09.901Z,23.93
2018-01-21T02:38:41.883Z,23.9
2018-01-21T02:39:13.905Z,23.9
2018-01-21T02:39:45.955Z,23.94
2018-01-21T02:40:17.954Z,23.93
2018-01-21T02:40:49.942Z,23.96
2018-01-21T02:41:21.906Z,23.92
2018-01-21T02:41:54.058Z,23.92
2018-01-21T02:42:26.071Z,23.85
2018-01-21T02:42:58.126Z,23.9
2018-01-21T02:43:30.157Z,23.96
2018-01-21T02:44:02.262Z,23.87
2018-01-21T02:44:34.291Z,23.85
2018-01-21T02:45:06.291Z,23.89
2018-01-21T02:45:38.331Z,23.94
2018-01-21T02:46:10.357Z,23.82
2018-01-21T02:46:42.330Z,23.93
2018-01-21T02:47:14.357Z,23.9
2018-01-21T02:47:46.423Z,23.9
2018-01-21T02:48:18.446Z,23.94
2018-01-21T02:48:50.437Z,23.94
2018-01-21T02:49:22.452Z,23.93
2018-01-21T02:49:54.472Z,23.93
2018-01-21T02:50:26.488Z,23.79
2018-01-21T02:50:58.549Z,23.92
2018-01-21T02:51:30.585Z,23.89
2018-01-21T02:52:02.585Z,23.82
2018-01-21T02:52:34.677Z,23.92
2018-01-21T02:53:07.581Z,23.92
2018-01-21T02:53:39.541Z,23.79
2018-01-21T02:54:11.561Z,23.89
2018-01-21T02:54:43.589Z,23.85
2018-01-21T02:55:15.666Z,23.89
2018-01-21T02:55:47.697Z,23.82
2018-01-21T02:56:19.723Z,23.85
2018-01-21T02:56:51.747Z,23.84
2018-01-21T02:57:23.752Z,23.85
2018-01-21T02:57:55.763Z,23.87
2018-01-21T02:58:27.802Z,23.75
2018-01-21T02:58:59.801Z,23.81
2018-01-21T02:59:31.791Z,23.81
2018-01-21T03:00:03.766Z,23.75
2018-01-21T03:00:35.754Z,23.78
2018-01-21T03:01:07.774Z,23.79
2018-01-21T03:01:39.826Z,23.85
2018-01-21T03:02:11.875Z,23.81
2018-01-21T03:02:43.844Z,23.81
2018-01-21T03:03:15.818Z,23.78
2018-01-21T03:03:47.825Z,23.77
2018-01-21T03:04:19.810Z,23.84
2018-01-21T03:04:51.853Z,23.82
2018-01-21T03:05:23.855Z,23.77
2018-01-21T03:05:56.431Z,23.82
2018-01-21T03:06:28.438Z,23.77
2018-01-21T03:07:00.408Z,23.85
2018-01-21T03:07:32.428Z,23.85
2018-01-21T03:08:04.454Z,23.87
2018-01-21T03:08:36.509Z,23.89
2018-01-21T03:09:09.031Z,23.87
2018-01-21T03:09:41.017Z,23.84
2018-01-21T03:10:13.054Z,23.81
2018-01-21T03:10:45.529Z,23.84
2018-01-21T03:11:17.536Z,23.85
2018-01-21T03:11:49.606Z,23.85
2018-01-21T03:12:21.714Z,23.81
2018-01-21T03:12:53.749Z,23.81
2018-01-21T03:13:25.753Z,23.78
2018-01-21T03:13:57.765Z,23.85
2018-01-21T03:14:30.665Z,23.74
2018-01-21T03:15:02.689Z,23.82
2018-01-21T03:15:34.721Z,23.81
2018-01-21T03:16:06.737Z,23.81
2018-01-21T03:16:38.721Z,23.81
2018-01-21T03:17:10.774Z,23.81
2018-01-21T03:17:42.724Z,23.81
2018-01-21T03:18:14.747Z,23.79
2018-01-21T03:18:46.748Z,23.81
2018-01-21T03:19:18.782Z,23.79
2018-01-21T03:19:50.885Z,23.84
2018-01-21T03:20:22.879Z,23.81
2018-01-21T03:20:54.836Z,23.84
2018-01-21T03:21:26.836Z,23.81
2018-01-21T03:21:59.740Z,23.78
2018-01-21T03:22:31.703Z,23.87
2018-01-21T03:23:03.686Z,23.78
2018-01-21T03:23:35.670Z,23.75
2018-01-21T03:24:07.779Z,23.87
2018-01-21T03:24:39.770Z,23.75
2018-01-21T03:25:11.743Z,23.82
2018-01-21T03:25:44.614Z,23.85
2018-01-21T03:26:16.656Z,23.78
2018-01-21T03:26:48.665Z,23.75
2018-01-21T03:27:20.647Z,23.84
2018-01-21T03:27:52.717Z,23.84
2018-01-21T03:28:24.728Z,23.78
2018-01-21T03:28:56.694Z,23.78
2018-01-21T03:29:28.710Z,23.78
2018-01-21T03:30:00.752Z,23.77
2018-01-21T03:30:32.816Z,23.75
2018-01-21T03:31:04.846Z,23.77
2018-01-21T03:31:36.848Z,23.75
2018-01-21T03:32:09.352Z,23.71
2018-01-21T03:32:41.343Z,23.77
2018-01-21T03:33:13.367Z,23.78
2018-01-21T03:33:45.368Z,23.78
2018-01-21T03:34:17.394Z,23.78
2018-01-21T03:34:49.393Z,23.74
2018-01-21T03:35:21.381Z,23.77
2018-01-21T03:35:53.368Z,23.81
2018-01-21T03:36:25.415Z,23.72
2018-01-21T03:36:57.419Z,23.77
2018-01-21T03:37:30.356Z,23.79
2018-01-21T03:38:02.460Z,23.77
2018-01-21T03:38:34.447Z,23.72
2018-01-21T03:39:06.432Z,23.78
2018-01-21T03:39:38.485Z,23.75
2018-01-21T03:40:10.519Z,23.7
2018-01-21T03:40:42.489Z,23.77
2018-01-21T03:41:14.447Z,23.72
2018-01-21T03:41:46.464Z,23.77
2018-01-21T03:42:18.599Z,23.75
2018-01-21T03:42:50.540Z,23.71
2018-01-21T03:43:22.532Z,23.62
2018-01-21T03:43:54.606Z,23.7
2018-01-21T03:44:26.581Z,23.74
2018-01-21T03:44:58.562Z,23.71
2018-01-21T03:45:30.584Z,23.67
2018-01-21T03:46:03.247Z,23.7
2018-01-21T03:46:35.263Z,23.75
2018-01-21T03:47:07.289Z,23.67
2018-01-21T03:47:39.248Z,23.72
2018-01-21T03:48:11.219Z,23.74
2018-01-21T03:48:43.222Z,23.7
2018-01-21T03:49:15.271Z,23.71
2018-01-21T03:49:47.267Z,23.75
2018-01-21T03:50:19.309Z,23.7
2018-01-21T03:50:51.305Z,23.71
2018-01-21T03:51:24.369Z,23.67
2018-01-21T03:51:56.372Z,23.7
2018-01-21T03:52:28.348Z,23.66
2018-01-21T03:53:00.364Z,23.72
2018-01-21T03:53:32.412Z,23.71
2018-01-21T03:54:04.393Z,23.71
2018-01-21T03:54:36.407Z,23.71
2018-01-21T03:55:09.099Z,23.71
2018-01-21T03:55:41.070Z,23.74
2018-01-21T03:56:13.089Z,23.66
2018-01-21T03:56:45.137Z,23.7
2018-01-21T03:57:17.145Z,23.7
2018-01-21T03:57:49.215Z,23.67
2018-01-21T03:58:21.236Z,23.66
2018-01-21T03:58:53.259Z,23.72
2018-01-21T03:59:25.258Z,23.7
2018-01-21T03:59:57.242Z,23.67
2018-01-21T04:00:29.208Z,23.72
2018-01-21T04:01:01.406Z,23.71
2018-01-21T04:01:33.877Z,23.64
2018-01-21T04:02:05.838Z,23.7
2018-01-21T04:02:38.848Z,23.67
2018-01-21T04:03:10.939Z,23.66
2018-01-21T04:03:42.927Z,23.64
2018-01-21T04:04:14.910Z,23.66
2018-01-21T04:04:46.912Z,23.67
2018-01-21T04:05:18.882Z,23.72
2018-01-21T04:05:50.932Z,23.71
2018-01-21T04:06:22.992Z,23.71
2018-01-21T04:06:55.008Z,23.72
2018-01-21T04:07:27.014Z,23.72
2018-01-21T04:07:58.985Z,23.72
2018-01-21T04:08:30.990Z,23.7
2018-01-21T04:09:03.001Z,23.66
2018-01-21T04:09:34.993Z,23.67
2018-01-21T04:10:06.992Z,23.72
2018-01-21T04:10:39.550Z,23.7
2018-01-21T04:11:11.572Z,23.67
2018-01-21T04:11:43.594Z,23.72
2018-01-21T04:12:15.630Z,23.7
2018-01-21T04:12:47.644Z,23.63
2018-01-21T04:13:19.678Z,23.71
2018-01-21T04:13:51.724Z,23.62
2018-01-21T04:14:24.352Z,23.72
2018-01-21T04:14:57.200Z,23.6
2018-01-21T04:15:29.230Z,23.7
2018-01-21T04:16:01.218Z,23.63
2018-01-21T04:16:33.254Z,23.71
2018-01-21T04:17:05.244Z,23.72
2018-01-21T04:17:37.299Z,23.71
2018-01-21T04:18:09.389Z,23.7
2018-01-21T04:18:41.417Z,23.62
2018-01-21T04:19:14.353Z,23.7
2018-01-21T04:19:46.382Z,23.62
2018-01-21T04:20:18.373Z,23.71
2018-01-21T04:20:50.420Z,23.7
2018-01-21T04:21:22.399Z,23.7
2018-01-21T04:21:54.384Z,23.66
2018-01-21T04:22:26.345Z,23.71
2018-01-21T04:22:58.355Z,23.66
2018-01-21T04:23:30.351Z,23.59
2018-01-21T04:24:02.345Z,23.7
2018-01-21T04:24:34.410Z,23.67
2018-01-21T04:25:06.388Z,23.7
2018-01-21T04:25:38.414Z,23.56
2018-01-21T04:26:10.388Z,23.57
2018-01-21T04:26:42.331Z,23.64
2018-01-21T04:27:14.355Z,23.66
2018-01-21T04:27:46.331Z,23.63
2018-01-21T04:28:18.357Z,23.64
2018-01-21T04:28:50.331Z,23.64
2018-01-21T04:29:22.352Z,23.66
2018-01-21T04:29:54.979Z,23.7
2018-01-21T04:30:26.993Z,23.7
2018-01-21T04:30:58.976Z,23.67
2018-01-21T04:31:31.068Z,23.66
2018-01-21T04:32:03.084Z,23.62
2018-01-21T04:32:35.044Z,23.7
2018-01-21T04:33:07.007Z,23.64
2018-01-21T04:33:38.955Z,23.7
2018-01-21T04:34:10.962Z,23.63
2018-01-21T04:34:43.564Z,23.63
2018-01-21T04:35:15.621Z,23.63
2018-01-21T04:35:47.598Z,23.64
2018-01-21T04:36:19.606Z,23.63
2018-01-21T04:36:51.563Z,23.66
2018-01-21T04:37:23.573Z,23.64
2018-01-21T04:37:55.514Z,23.72
2018-01-21T04:38:27.486Z,23.63
2018-01-21T04:38:59.481Z,23.62
2018-01-21T04:39:31.437Z,23.63
2018-01-21T04:40:03.514Z,23.7
2018-01-21T04:40:35.633Z,23.63
2018-01-21T04:41:07.628Z,23.64
2018-01-21T04:41:39.641Z,23.66
2018-01-21T04:42:11.628Z,23.67
2018-01-21T04:42:43.616Z,23.67
2018-01-21T04:43:15.659Z,23.67
2018-01-21T04:43:47.644Z,23.75
2018-01-21T04:44:19.662Z,23.64
2018-01-21T04:44:51.666Z,23.74
2018-01-21T04:45:24.197Z,23.67
2018-01-21T04:45:56.147Z,23.63
2018-01-21T04:46:28.153Z,23.72
2018-01-21T04:47:00.150Z,23.7
2018-01-21T04:47:32.157Z,23.7
2018-01-21T04:48:04.176Z,23.66
2018-01-21T04:48:37.104Z,23.72
2018-01-21T04:49:09.140Z,23.72
2018-01-21T04:49:41.175Z,23.75
2018-01-21T04:50:13.154Z,23.7
2018-01-21T04:50:45.212Z,23.71
2018-01-21T04:51:17.207Z,23.71
2018-01-21T04:51:49.889Z,23.74
2018-01-21T04:52:21.908Z,23.72
2018-01-21T04:52:53.997Z,23.66
2018-01-21T04:53:26.002Z,23.71
2018-01-21T04:53:57.966Z,23.7
2018-01-21T04:54:30.007Z,23.74
2018-01-21T04:55:02.718Z,23.74
2018-01-21T04:55:34.762Z,23.75
2018-01-21T04:56:06.734Z,23.77
2018-01-21T04:56:38.796Z,23.72
2018-01-21T04:57:10.940Z,23.72
2018-01-21T04:57:43.521Z,23.78
2018-01-21T04:58:15.509Z,23.72
2018-01-21T04:58:47.615Z,23.78
2018-01-21T04:59:19.613Z,23.67
2018-01-21T04:59:51.668Z,23.74
2018-01-21T05:00:23.663Z,23.78
2018-01-21T05:00:55.774Z,23.77
2018-01-21T05:01:27.729Z,23.77
2018-01-21T05:01:59.720Z,23.78
2018-01-21T05:02:31.695Z,23.78
2018-01-21T05:03:03.722Z,23.77
2018-01-21T05:03:35.727Z,23.78
2018-01-21T05:04:07.724Z,23.78
2018-01-21T05:04:39.742Z,23.78
2018-01-21T05:05:11.772Z,23.77
2018-01-21T05:05:43.810Z,23.79
2018-01-21T05:06:15.817Z,23.75
2018-01-21T05:06:48.801Z,23.79
2018-01-21T05:07:20.801Z,23.75
2018-01-21T05:07:52.792Z,23.75
2018-01-21T05:08:24.743Z,23.84
2018-01-21T05:08:56.779Z,23.82
2018-01-21T05:09:28.780Z,23.82
2018-01-21T05:10:00.805Z,23.81
2018-01-21T05:10:32.837Z,23.75
2018-01-21T05:11:04.851Z,23.82
2018-01-21T05:11:36.875Z,23.84
2018-01-21T05:12:08.909Z,23.85
2018-01-21T05:12:40.872Z,23.87
2018-01-21T05:13:12.900Z,23.78
2018-01-21T05:13:44.910Z,23.82
2018-01-21T05:14:16.897Z,23.84
2018-01-21T05:14:48.886Z,23.81
2018-01-21T05:15:20.923Z,23.81
2018-01-21T05:15:52.917Z,23.84
2018-01-21T05:16:24.933Z,23.78
2018-01-21T05:16:56.959Z,23.84
2018-01-21T05:17:28.985Z,23.84
2018-01-21T05:18:00.938Z,23.82
2018-01-21T05:18:32.995Z,23.79
2018-01-21T05:19:04.990Z,23.85
2018-01-21T05:19:37.018Z,23.81
2018-01-21T05:20:09.038Z,23.84
2018-01-21T05:20:41.105Z,23.81
2018-01-21T05:21:13.122Z,23.93
2018-01-21T05:21:45.121Z,23.9
2018-01-21T05:22:17.143Z,23.85
2018-01-21T05:22:49.161Z,23.9
2018-01-21T05:23:21.255Z,23.87
2018-01-21T05:23:53.261Z,23.79
2018-01-21T05:24:25.266Z,23.9
2018-01-21T05:24:57.275Z,23.87
2018-01-21T05:25:29.295Z,23.99
2018-01-21T05:26:02.217Z,23.84
2018-01-21T05:26:34.231Z,23.89
2018-01-21T05:27:06.269Z,23.94
2018-01-21T05:27:38.300Z,23.93
2018-01-21T05:28:10.286Z,23.9
2018-01-21T05:28:43.208Z,23.9
2018-01-21T05:29:15.214Z,23.9
2018-01-21T05:29:48.015Z,23.89
2018-01-21T05:30:20.062Z,23.93
2018-01-21T05:30:52.075Z,23.89
2018-01-21T05:31:24.102Z,23.96
2018-01-21T05:31:56.134Z,23.9
2018-01-21T05:32:28.289Z,23.93
2018-01-21T05:33:00.321Z,23.97
2018-01-21T05:33:32.330Z,24
2018-01-21T05:34:04.285Z,23.9
2018-01-21T05:34:36.269Z,23.9
2018-01-21T05:35:08.284Z,23.94
2018-01-21T05:35:40.462Z,23.99
2018-01-21T05:36:13.027Z,23.96
2018-01-21T05:36:45.910Z,23.92
2018-01-21T05:37:18.719Z,23.92
2018-01-21T05:37:50.721Z,23.93
2018-01-21T05:38:22.745Z,24
2018-01-21T05:38:54.721Z,24
2018-01-21T05:39:27.331Z,24.03
2018-01-21T05:39:59.452Z,23.93
2018-01-21T05:40:32.936Z,24.02
2018-01-21T05:41:04.923Z,24
2018-01-21T05:41:36.965Z,23.93
2018-01-21T05:42:08.976Z,23.94
2018-01-21T05:42:40.981Z,23.96
2018-01-21T05:43:12.960Z,23.92
2018-01-21T05:43:44.981Z,23.93
2018-01-21T05:44:17.770Z,23.93
2018-01-21T05:44:50.599Z,23.93
2018-01-21T05:45:22.656Z,23.89
2018-01-21T05:45:54.681Z,23.93
2018-01-21T05:46:26.690Z,23.92
2018-01-21T05:46:58.681Z,23.94
2018-01-21T05:47:30.656Z,23.92
2018-01-21T05:48:02.652Z,23.94
2018-01-21T05:48:34.710Z,23.93
2018-01-21T05:49:07.525Z,23.9
2018-01-21T05:49:39.517Z,23.92
2018-01-21T05:50:11.528Z,23.96
2018-01-21T05:50:43.545Z,23.92
2018-01-21T05:51:15.545Z,23.94
2018-01-21T05:51:47.533Z,23.97
2018-01-21T05:52:19.589Z,23.92
2018-01-21T05:52:51.637Z,24
2018-01-21T05:53:23.625Z,23.97
2018-01-21T05:53:55.618Z,23.93
2018-01-21T05:54:27.608Z,23.89
2018-01-21T05:55:00.113Z,23.96
2018-01-21T05:55:32.158Z,24.02
2018-01-21T05:56:04.180Z,23.93
2018-01-21T05:56:36.191Z,23.97
2018-01-21T05:57:08.160Z,23.94
2018-01-21T05:57:40.186Z,23.93
2018-01-21T05:58:12.219Z,23.99
2018-01-21T05:58:44.203Z,23.93
2018-01-21T05:59:16.241Z,23.96
2018-01-21T05:59:48.243Z,23.97
2018-01-21T06:00:20.330Z,24.02
2018-01-21T06:00:52.934Z,23.96
2018-01-21T06:01:24.937Z,23.93
2018-01-21T06:01:56.947Z,23.97
2018-01-21T06:02:28.976Z,23.97
2018-01-21T06:03:01.009Z,23.99
2018-01-21T06:03:33.030Z,23.96
2018-01-21T06:04:04.997Z,23.94
2018-01-21T06:04:37.011Z,24
2018-01-21T06:05:09.019Z,23.97
2018-01-21T06:05:41.029Z,24
2018-01-21T06:06:14.002Z,24.03
2018-01-21T06:06:46.155Z,24
2018-01-21T06:07:18.166Z,24.02
2018-01-21T06:07:50.145Z,24.02
2018-01-21T06:08:22.162Z,24
2018-01-21T06:08:54.121Z,24.03
2018-01-21T06:09:27.062Z,23.93
2018-01-21T06:09:59.034Z,24.02
2018-01-21T06:10:31.042Z,24
2018-01-21T06:11:03.024Z,24
2018-01-21T06:11:34.988Z,24
2018-01-21T06:12:07.141Z,24
2018-01-21T06:12:39.811Z,24.02
2018-01-21T06:13:11.801Z,24.03
2018-01-21T06:13:43.801Z,24.03
2018-01-21T06:14:15.849Z,24
2018-01-21T06:14:47.943Z,23.99
2018-01-21T06:15:19.951Z,24.07
2018-01-21T06:15:51.946Z,23.99
2018-01-21T06:16:23.945Z,24
2018-01-21T06:16:55.901Z,24.07
2018-01-21T06:17:27.872Z,24.08
2018-01-21T06:17:59.917Z,24
2018-01-21T06:18:31.954Z,24.08
2018-01-21T06:19:03.996Z,24.09
2018-01-21T06:19:36.021Z,24.07
2018-01-21T06:20:08.043Z,24.03
2018-01-21T06:20:40.047Z,24.04
2018-01-21T06:21:12.046Z,24
2018-01-21T06:21:44.047Z,24.07
2018-01-21T06:22:16.065Z,24.04
2018-01-21T06:22:48.709Z,24.09
2018-01-21T06:23:20.688Z,24.09
2018-01-21T06:23:52.694Z,23.99
2018-01-21T06:24:24.788Z,24.03
2018-01-21T06:24:56.791Z,24.12
2018-01-21T06:25:28.895Z,24.09
2018-01-21T06:26:00.922Z,24.09
2018-01-21T06:26:32.950Z,24.03
2018-01-21T06:27:04.936Z,24.03
2018-01-21T06:27:36.903Z,24.04
2018-01-21T06:28:09.741Z,24
2018-01-21T06:28:42.243Z,23.99
2018-01-21T06:29:14.234Z,24.04
2018-01-21T06:29:46.226Z,24.08
2018-01-21T06:30:18.187Z,24.03
2018-01-21T06:30:50.167Z,24.03
2018-01-21T06:31:22.650Z,24.11
2018-01-21T06:31:54.651Z,24.08
2018-01-21T06:32:26.664Z,24.11
2018-01-21T06:32:58.723Z,24.14
2018-01-21T06:33:30.751Z,24.02
2018-01-21T06:34:02.805Z,24.04
2018-01-21T06:34:34.832Z,24.08
2018-01-21T06:35:06.834Z,24.07
2018-01-21T06:35:38.847Z,24.09
2018-01-21T06:36:10.870Z,24.08
2018-01-21T06:36:42.845Z,24.11
2018-01-21T06:37:14.876Z,24.11
2018-01-21T06:37:47.000Z,24
2018-01-21T06:38:19.555Z,24.11
2018-01-21T06:38:51.639Z,24.02
2018-01-21T06:39:23.650Z,24.04
2018-01-21T06:39:55.632Z,24.03
2018-01-21T06:40:27.626Z,24.08
2018-01-21T06:40:59.601Z,24.09
2018-01-21T06:41:31.628Z,24
2018-01-21T06:42:03.631Z,24.07
2018-01-21T06:42:35.689Z,24.07
2018-01-21T06:43:07.731Z,24.09
2018-01-21T06:43:39.730Z,24.04
2018-01-21T06:44:11.828Z,24.08
2018-01-21T06:44:43.834Z,24.11
2018-01-21T06:45:15.876Z,24.02
2018-01-21T06:45:47.886Z,24.03
2018-01-21T06:46:20.014Z,24.02
2018-01-21T06:46:52.011Z,23.99
2018-01-21T06:47:24.046Z,24.11
2018-01-21T06:47:56.001Z,23.97
2018-01-21T06:48:27.990Z,24.08
2018-01-21T06:49:00.017Z,23.99
2018-01-21T06:49:32.049Z,24.12
2018-01-21T06:50:04.024Z,24.07
2018-01-21T06:50:35.981Z,24.02
2018-01-21T06:51:07.974Z,24.07
2018-01-21T06:51:39.934Z,24.09
2018-01-21T06:52:12.657Z,23.99
2018-01-21T06:52:44.736Z,24.11
2018-01-21T06:53:16.755Z,24.02
2018-01-21T06:53:48.767Z,24.08
2018-01-21T06:54:20.899Z,24
2018-01-21T06:54:52.870Z,24.09
2018-01-21T06:55:24.871Z,24
2018-01-21T06:55:56.853Z,24.08
2018-01-21T06:56:28.824Z,24.02